createdAt,value
2022-11-08T00:03:38.738Z,2.25
2022-11-08T00:10:00.913Z,2.25
2022-11-08T00:16:04.794Z,2.42
2022-11-08T00:22:08.146Z,2.33
2022-11-08T00:28:12.801Z,1.83
2022-11-08T00:34:16.120Z,2.30
2022-11-08T00:40:19.669Z,1.98
2022-11-08T00:46:25.023Z,2.33
2022-11-08T00:52:28.370Z,1.88
2022-11-08T00:58:31.773Z,2.20
2022-11-08T01:04:36.440Z,2.13
2022-11-08T01:10:42.542Z,1.80
2022-11-08T01:16:45.952Z,3.40
2022-11-08T01:22:50.793Z,1.95
2022-11-08T01:28:54.415Z,1.75
2022-11-08T01:34:57.861Z,1.83
2022-11-08T01:41:02.657Z,2.10
2022-11-08T01:47:06.271Z,2.33
2022-11-08T01:53:09.679Z,4.00
2022-11-08T01:59:15.813Z,2.15
2022-11-08T02:05:26.147Z,1.90
2022-11-08T02:11:30.110Z,4.10
2022-11-08T02:17:35.337Z,3.33
2022-11-08T02:23:50.415Z,2.33
2022-11-08T02:29:54.622Z,2.17
2022-11-08T02:35:58.289Z,3.92
2022-11-08T02:42:03.817Z,4.45
2022-11-08T02:48:08.163Z,7.18
2022-11-08T02:54:12.225Z,8.85
2022-11-08T03:00:17.874Z,4.75
2022-11-08T03:06:21.234Z,3.13
2022-11-08T03:12:24.581Z,3.55
2022-11-08T03:18:29.302Z,8.45
2022-11-08T03:24:33.860Z,2.33
2022-11-08T03:30:38.225Z,2.55
2022-11-08T03:36:43.035Z,2.03
2022-11-08T03:42:46.389Z,3.65
2022-11-08T03:48:49.723Z,5.80
2022-11-08T03:54:54.400Z,3.17
2022-11-08T04:00:58.732Z,3.60
2022-11-08T04:07:02.061Z,2.33
2022-11-08T04:13:24.391Z,4.78
2022-11-08T04:19:45.182Z,3.70
2022-11-08T04:25:55.082Z,2.33
2022-11-08T04:32:00.039Z,2.78
2022-11-08T04:38:03.917Z,1.77
2022-11-08T04:44:07.491Z,1.58
2022-11-08T04:50:12.517Z,1.50
2022-11-08T04:56:17.332Z,2.30
2022-11-08T05:02:20.738Z,1.65
2022-11-08T05:08:25.796Z,1.73
2022-11-08T05:14:29.147Z,1.33
2022-11-08T05:20:50.081Z,1.48
2022-11-08T05:26:55.291Z,1.35
2022-11-08T05:32:58.619Z,1.45
2022-11-08T05:39:02.044Z,1.55
2022-11-08T05:45:09.435Z,3.10
2022-11-08T05:51:13.481Z,2.00
2022-11-08T05:57:21.117Z,1.60
2022-11-08T06:03:27.382Z,1.70
2022-11-08T06:09:31.114Z,1.92
2022-11-08T06:15:34.490Z,1.70
2022-11-08T06:21:39.279Z,1.90
2022-11-08T06:27:42.654Z,2.10
2022-11-08T06:33:46.120Z,1.85
2022-11-08T06:39:50.868Z,1.88
2022-11-08T06:45:54.224Z,2.00
2022-11-08T06:51:58.732Z,2.05
2022-11-08T06:58:03.849Z,2.20
2022-11-08T07:04:08.286Z,1.90
2022-11-08T07:10:12.065Z,2.00
2022-11-08T07:16:16.861Z,1.70
2022-11-08T07:22:20.250Z,1.65
2022-11-08T07:28:23.623Z,1.70
2022-11-08T07:34:28.435Z,1.90
2022-11-08T07:40:32.023Z,1.23
2022-11-08T07:46:35.667Z,1.85
2022-11-08T07:52:40.398Z,1.73
2022-11-08T07:58:43.754Z,1.60
2022-11-08T08:04:47.142Z,1.52
2022-11-08T08:10:51.890Z,1.50
2022-11-08T08:16:55.302Z,1.45
2022-11-08T08:22:59.001Z,2.30
2022-11-08T08:29:04.125Z,1.60
2022-11-08T08:35:07.980Z,1.60
2022-11-08T08:41:12.336Z,1.30
2022-11-08T08:47:17.091Z,1.70
2022-11-08T08:53:21.554Z,1.50
2022-11-08T09:05:50.323Z,1.58
2022-11-08T09:11:54.952Z,1.75
2022-11-08T09:17:58.745Z,1.92
2022-11-08T09:24:04.059Z,1.67
2022-11-08T09:30:07.920Z,2.35
2022-11-08T09:36:14.235Z,1.50
2022-11-08T09:42:24.642Z,1.83
2022-11-08T09:48:29.734Z,1.67
2022-11-08T09:54:37.052Z,1.50
2022-11-08T10:00:42.300Z,1.50
2022-11-08T10:07:02.516Z,1.70
2022-11-08T10:13:10.362Z,1.40
2022-11-08T10:19:25.773Z,1.90
2022-11-08T10:25:33.124Z,1.88
2022-11-08T10:31:37.186Z,1.80
2022-11-08T10:37:44.304Z,1.60
2022-11-08T10:43:51.562Z,1.92
2022-11-08T10:49:58.402Z,1.67
2022-11-08T10:56:07.893Z,1.52
2022-11-08T11:02:22.072Z,1.30
2022-11-08T11:08:25.592Z,1.60
2022-11-08T11:14:30.254Z,1.40
2022-11-08T11:20:35.137Z,1.73
2022-11-08T11:26:42.244Z,1.38
2022-11-08T11:32:56.424Z,1.35
2022-11-08T11:39:03.917Z,1.45
2022-11-08T11:45:13.965Z,1.60
2022-11-08T11:51:18.979Z,1.50
2022-11-08T11:57:25.361Z,1.45
2022-11-08T12:03:39.844Z,1.50
2022-11-08T12:09:50.043Z,1.27
2022-11-08T12:15:55.411Z,1.25
2022-11-08T12:22:02.610Z,1.00
2022-11-08T12:28:15.742Z,1.40
2022-11-08T12:34:24.727Z,1.40
2022-11-08T12:40:31.297Z,1.42
2022-11-08T12:46:41.537Z,1.80
2022-11-08T12:52:51.283Z,1.40
2022-11-08T12:58:56.223Z,1.20
2022-11-08T13:05:02.572Z,1.55
2022-11-08T13:11:07.484Z,1.50
2022-11-08T13:17:22.936Z,1.60
2022-11-08T13:23:29.893Z,1.48
2022-11-08T13:29:33.303Z,1.38
2022-11-08T13:35:39.830Z,1.30
2022-11-08T13:41:58.074Z,1.45
2022-11-08T13:48:03.804Z,1.40
2022-11-08T13:54:28.427Z,1.63
2022-11-08T14:00:36.383Z,1.58
2022-11-08T14:06:43.683Z,1.73
2022-11-08T14:12:53.152Z,1.70
2022-11-08T14:18:56.974Z,1.75
2022-11-08T14:25:09.167Z,1.10
2022-11-08T14:31:25.065Z,1.92
2022-11-08T14:37:30.061Z,2.05
2022-11-08T14:43:37.193Z,1.80
2022-11-08T14:49:40.550Z,1.70
2022-11-08T14:55:44.276Z,1.63
2022-11-08T15:01:50.535Z,1.80
2022-11-08T15:07:54.320Z,1.58
2022-11-08T15:13:59.140Z,1.88
2022-11-08T15:20:08.269Z,2.33
2022-11-08T15:26:25.949Z,1.90
2022-11-08T15:32:30.248Z,1.77
2022-11-08T15:38:36.501Z,1.67
2022-11-08T15:44:54.686Z,1.90
2022-11-08T15:50:58.178Z,2.22
2022-11-08T15:57:03.198Z,2.30
2022-11-08T16:03:06.605Z,1.95
2022-11-08T16:09:09.998Z,1.90
2022-11-08T16:15:16.306Z,1.40
2022-11-08T16:21:19.839Z,2.10
2022-11-08T16:27:23.287Z,1.60
2022-11-08T16:33:28.769Z,1.80
2022-11-08T16:39:32.506Z,2.28
2022-11-08T16:46:03.359Z,2.08
2022-11-08T16:52:00.915Z,1.38
2022-11-08T16:58:05.190Z,1.65
2022-11-08T17:04:08.584Z,2.08
2022-11-08T17:10:16.877Z,1.95
2022-11-08T17:16:20.264Z,2.10
2022-11-08T17:22:23.633Z,3.47
2022-11-08T17:28:28.379Z,2.15
2022-11-08T17:34:31.762Z,2.45
2022-11-08T17:40:35.624Z,3.03
2022-11-08T17:46:40.312Z,2.30
2022-11-08T17:52:43.795Z,2.60
2022-11-08T17:58:47.357Z,1.90
2022-11-08T18:04:52.346Z,2.22
2022-11-08T18:10:55.955Z,2.65
2022-11-08T18:16:59.958Z,2.53
2022-11-08T18:23:05.423Z,2.53
2022-11-08T18:29:09.213Z,1.83
2022-11-08T18:35:13.115Z,3.13
2022-11-08T18:41:20.102Z,2.72
2022-11-08T18:47:23.801Z,2.88
2022-11-08T18:53:27.695Z,3.00
2022-11-08T18:59:32.942Z,1.77
2022-11-08T19:05:36.447Z,2.10
2022-11-08T19:11:39.817Z,1.85
2022-11-08T19:17:47.285Z,1.60
2022-11-08T19:23:58.193Z,1.70
2022-11-08T19:30:01.697Z,2.00
2022-11-08T19:36:07.939Z,1.50
2022-11-08T19:42:11.676Z,1.80
2022-11-08T19:48:16.011Z,1.50
2022-11-08T19:54:22.125Z,4.00
2022-11-08T20:00:25.690Z,3.20
2022-11-08T20:06:29.442Z,1.90
2022-11-08T20:12:35.073Z,1.98
2022-11-08T20:18:38.647Z,1.70
2022-11-08T20:24:42.095Z,2.15
2022-11-08T20:30:46.880Z,1.90
2022-11-08T20:36:50.964Z,3.25
2022-11-08T20:42:54.657Z,2.33
2022-11-08T20:49:01.202Z,1.73
2022-11-08T20:55:05.503Z,2.15
2022-11-08T21:01:09.561Z,1.95
2022-11-08T21:13:38.633Z,2.00
2022-11-08T21:19:42.060Z,1.42
2022-11-08T21:25:46.863Z,1.77
2022-11-08T21:31:51.604Z,1.88
2022-11-08T21:37:55.195Z,1.80
2022-11-08T21:44:00.681Z,1.70
2022-11-08T21:50:04.209Z,1.90
2022-11-08T21:56:07.811Z,1.45
2022-11-08T22:02:13.038Z,1.60
2022-11-08T22:08:16.854Z,1.70
2022-11-08T22:14:20.773Z,2.40
2022-11-08T22:20:25.619Z,2.45
2022-11-08T22:26:29.365Z,1.67
2022-11-08T22:32:33.282Z,1.60
2022-11-08T22:38:38.187Z,1.55
2022-11-08T22:44:41.716Z,1.60
2022-11-08T22:50:45.101Z,1.50
2022-11-08T22:56:49.969Z,1.80
2022-11-08T23:02:53.407Z,1.70
2022-11-08T23:08:56.827Z,1.65
2022-11-08T23:15:19.055Z,1.52
2022-11-08T23:21:40.204Z,1.17
2022-11-08T23:28:01.282Z,1.23
2022-11-08T23:34:06.558Z,1.42
2022-11-08T23:40:28.427Z,1.80
2022-11-08T23:46:31.785Z,1.70
2022-11-08T23:52:36.539Z,1.75
2022-11-08T23:58:40.183Z,1.40
